Time;durP1;ratioP1;P1;durP2;ratioP2;P2;SDS_P1;SDS_P2;PMS_P1;PMS_P2;Temp;Humidity;BMP_temperature;BMP_pressure;BME280_temperature;BME280_humidity;BME280_pressure;Samples;Min_cycle;Max_cycle;Signal;HPM_P1;HPM_P2
2023/12/26 00:01:19;;;;;;;5.33;4.67;;;;;;;;;;5116193;28;20211;-77
2023/12/26 00:03:48;;;;;;;7.60;3.37;;;;;;;;;;5115423;28;20211;-77
2023/12/26 00:06:20;;;;;;;5.93;4.17;;;;;;;;;;5115650;28;20199;-77
2023/12/26 00:08:47;;;;;;;8.23;5.47;;;;;;;;;;5115875;28;20264;-77
2023/12/26 00:11:15;;;;;;;6.83;4.13;;;;;;;;;;5115731;28;20256;-77
2023/12/26 00:13:43;;;;;;;2.33;2.13;;;;;;;;;;5115501;28;20199;-77
2023/12/26 00:16:12;;;;;;;3.53;2.60;;;;;;;;;;5115495;28;20199;-77
2023/12/26 00:18:38;;;;;;;7.77;4.37;;;;;;;;;;5115854;28;20260;-77
2023/12/26 00:21:05;;;;;;;4.00;3.30;;;;;;;;;;5115535;28;20195;-77
2023/12/26 00:23:32;;;;;;;4.97;4.47;;;;;;;;;;5115787;28;20539;-77
2023/12/26 00:25:59;;;;;;;4.60;4.20;;;;;;;;;;5115824;28;20218;-77
2023/12/26 00:28:26;;;;;;;6.37;3.93;;;;;;;;;;5115656;28;20200;-77
2023/12/26 00:30:54;;;;;;;6.23;4.20;;;;;;;;;;5115392;28;20226;-77
2023/12/26 00:33:21;;;;;;;4.13;3.23;;;;;;;;;;5115053;28;20211;-77
2023/12/26 00:35:47;;;;;;;5.53;4.13;;;;;;;;;;5114987;28;20658;-77
2023/12/26 00:38:14;;;;;;;3.20;2.90;;;;;;;;;;5115101;28;20210;-78
2023/12/26 00:40:41;;;;;;;3.03;2.27;;;;;;;;;;5115725;28;20568;-77
2023/12/26 00:43:08;;;;;;;3.20;2.60;;;;;;;;;;5115856;28;20206;-78
2023/12/26 00:45:35;;;;;;;11.93;7.40;;;;;;;;;;5115290;28;20215;-76
2023/12/26 00:48:07;;;;;;;8.67;5.80;;;;;;;;;;5115243;28;20198;-76
2023/12/26 00:50:41;;;;;;;8.87;6.50;;;;;;;;;;5115053;28;20689;-76
2023/12/26 00:53:09;;;;;;;7.63;6.83;;;;;;;;;;5114208;28;20720;-76
2023/12/26 00:55:35;;;;;;;5.70;3.93;;;;;;;;;;5114751;28;20294;-76
2023/12/26 00:58:02;;;;;;;4.97;2.73;;;;;;;;;;5114655;28;20191;-76
2023/12/26 01:00:29;;;;;;;3.90;2.60;;;;;;;;;;5114992;28;20299;-76
2023/12/26 01:02:56;;;;;;;5.67;3.03;;;;;;;;;;5114430;28;20199;-76
2023/12/26 01:05:24;;;;;;;3.80;2.90;;;;;;;;;;5114672;28;20211;-76
2023/12/26 01:07:51;;;;;;;6.80;3.10;;;;;;;;;;5114700;28;20210;-77
2023/12/26 01:10:18;;;;;;;2.97;2.67;;;;;;;;;;5114463;28;20200;-76
2023/12/26 01:12:45;;;;;;;3.93;2.77;;;;;;;;;;5114725;28;20688;-76
2023/12/26 01:15:12;;;;;;;8.13;5.53;;;;;;;;;;5114938;28;20191;-76
2023/12/26 01:17:39;;;;;;;8.40;5.57;;;;;;;;;;5114155;28;20339;-76
2023/12/26 01:20:08;;;;;;;6.67;5.63;;;;;;;;;;5114892;28;20222;-76
2023/12/26 01:22:36;;;;;;;5.40;3.67;;;;;;;;;;5114236;28;20678;-76
2023/12/26 01:25:05;;;;;;;5.07;3.37;;;;;;;;;;5114837;28;20211;-76
2023/12/26 01:27:33;;;;;;;6.47;2.97;;;;;;;;;;5114819;28;20195;-76
2023/12/26 01:30:01;;;;;;;8.07;6.70;;;;;;;;;;5114281;28;20195;-75
2023/12/26 01:32:28;;;;;;;7.53;5.50;;;;;;;;;;5114579;28;20224;-76
2023/12/26 01:34:55;;;;;;;9.17;4.47;;;;;;;;;;5114465;28;20256;-76
2023/12/26 01:37:21;;;;;;;8.20;5.67;;;;;;;;;;5113848;28;20202;-76
2023/12/26 01:39:50;;;;;;;4.80;3.10;;;;;;;;;;5113987;28;20248;-76
2023/12/26 01:42:17;;;;;;;2.83;2.40;;;;;;;;;;5113994;28;20191;-76
2023/12/26 01:44:44;;;;;;;7.77;4.03;;;;;;;;;;5113715;28;20257;-76
2023/12/26 01:47:12;;;;;;;5.97;3.63;;;;;;;;;;5113793;28;20192;-76
2023/12/26 01:49:39;;;;;;;3.17;2.30;;;;;;;;;;5114009;28;20196;-76
2023/12/26 01:52:09;;;;;;;2.70;1.83;;;;;;;;;;5113530;28;20661;-76
2023/12/26 01:54:37;;;;;;;5.90;2.40;;;;;;;;;;5113927;28;20210;-76
2023/12/26 01:57:06;;;;;;;6.30;1.90;;;;;;;;;;5113767;28;20235;-76
2023/12/26 01:59:33;;;;;;;2.70;2.10;;;;;;;;;;5113518;28;20198;-76
2023/12/26 02:02:03;;;;;;;3.33;1.90;;;;;;;;;;5113414;28;20196;-76
2023/12/26 02:04:30;;;;;;;3.03;2.70;;;;;;;;;;5113160;28;20239;-76
2023/12/26 02:06:57;;;;;;;5.33;2.63;;;;;;;;;;5113385;28;20202;-76
2023/12/26 02:09:25;;;;;;;3.50;2.23;;;;;;;;;;5113520;28;20191;-76
2023/12/26 02:11:51;;;;;;;4.13;3.17;;;;;;;;;;5113208;28;20248;-76
2023/12/26 02:14:20;;;;;;;6.23;4.83;;;;;;;;;;5113240;28;20210;-76
2023/12/26 02:16:47;;;;;;;13.03;9.00;;;;;;;;;;5113196;28;20191;-76
2023/12/26 02:19:15;;;;;;;17.17;10.57;;;;;;;;;;5113134;28;20199;-76
2023/12/26 02:21:42;;;;;;;7.30;4.97;;;;;;;;;;5112960;28;20282;-76
2023/12/26 02:24:13;;;;;;;9.57;3.70;;;;;;;;;;5112904;28;20260;-76
2023/12/26 02:26:41;;;;;;;2.37;2.17;;;;;;;;;;5113317;28;20199;-76
2023/12/26 02:29:08;;;;;;;5.93;3.13;;;;;;;;;;5113022;28;20203;-76
2023/12/26 02:31:36;;;;;;;3.57;2.57;;;;;;;;;;5113483;28;20227;-76
2023/12/26 02:34:03;;;;;;;6.47;4.03;;;;;;;;;;5112691;28;20203;-76
2023/12/26 02:36:30;;;;;;;7.00;4.00;;;;;;;;;;5112820;28;20202;-76
2023/12/26 02:38:57;;;;;;;8.23;5.77;;;;;;;;;;5113827;28;20199;-76
2023/12/26 02:41:25;;;;;;;25.27;14.10;;;;;;;;;;5112662;28;20196;-76
2023/12/26 02:43:52;;;;;;;19.37;8.97;;;;;;;;;;5112620;28;20199;-76
2023/12/26 02:46:19;;;;;;;19.87;10.07;;;;;;;;;;5113046;28;20215;-76
2023/12/26 02:48:46;;;;;;;15.63;9.40;;;;;;;;;;5112762;28;20195;-76
2023/12/26 02:51:12;;;;;;;7.37;4.90;;;;;;;;;;5112602;28;20199;-76
2023/12/26 02:53:39;;;;;;;4.13;3.23;;;;;;;;;;5112670;28;20245;-76
2023/12/26 02:56:06;;;;;;;6.83;4.83;;;;;;;;;;5111398;28;20191;-76
2023/12/26 02:58:36;;;;;;;3.83;3.13;;;;;;;;;;5112357;28;20670;-76
2023/12/26 03:01:02;;;;;;;2.90;2.23;;;;;;;;;;5112340;28;20223;-76
2023/12/26 03:03:29;;;;;;;3.13;2.17;;;;;;;;;;5112878;28;20248;-76
2023/12/26 03:05:56;;;;;;;4.87;2.40;;;;;;;;;;5112434;28;20223;-76
2023/12/26 03:08:23;;;;;;;2.40;2.20;;;;;;;;;;5112753;28;20195;-76
2023/12/26 03:10:50;;;;;;;3.40;2.70;;;;;;;;;;5112321;28;20199;-77
2023/12/26 03:13:17;;;;;;;4.80;3.30;;;;;;;;;;5113021;28;20202;-76
2023/12/26 03:15:45;;;;;;;5.70;3.23;;;;;;;;;;5112818;28;20233;-77
2023/12/26 03:18:12;;;;;;;4.17;2.83;;;;;;;;;;5112563;28;20199;-76
2023/12/26 03:20:39;;;;;;;3.40;2.07;;;;;;;;;;5112323;28;20199;-77
2023/12/26 03:23:06;;;;;;;3.67;1.80;;;;;;;;;;5112111;28;20610;-76
2023/12/26 03:25:32;;;;;;;4.30;2.53;;;;;;;;;;5112615;28;20215;-77
2023/12/26 03:27:59;;;;;;;3.60;2.33;;;;;;;;;;5112410;28;20195;-77
2023/12/26 03:30:26;;;;;;;3.30;1.90;;;;;;;;;;5112363;28;20195;-76
2023/12/26 03:32:54;;;;;;;4.00;3.13;;;;;;;;;;5112355;28;20199;-76
2023/12/26 03:35:21;;;;;;;5.50;4.70;;;;;;;;;;5112176;28;20211;-76
2023/12/26 03:37:48;;;;;;;4.50;4.10;;;;;;;;;;5111954;28;20202;-76
2023/12/26 03:40:16;;;;;;;4.63;3.20;;;;;;;;;;5111920;28;20191;-76
2023/12/26 03:42:45;;;;;;;2.77;2.50;;;;;;;;;;5111941;28;21565;-76
2023/12/26 03:45:12;;;;;;;4.33;2.57;;;;;;;;;;5112677;28;20566;-76
2023/12/26 03:47:38;;;;;;;2.40;2.20;;;;;;;;;;5112139;28;20224;-76
2023/12/26 03:50:07;;;;;;;2.43;2.00;;;;;;;;;;5111870;28;20199;-76
2023/12/26 03:52:34;;;;;;;4.83;2.33;;;;;;;;;;5111806;28;20231;-76
2023/12/26 03:55:02;;;;;;;3.13;2.40;;;;;;;;;;5111967;28;20202;-76
2023/12/26 03:57:29;;;;;;;3.17;2.80;;;;;;;;;;5112118;28;20767;-76
2023/12/26 03:59:56;;;;;;;1.97;1.83;;;;;;;;;;5111628;28;20700;-76
2023/12/26 04:02:23;;;;;;;3.90;2.73;;;;;;;;;;5112727;28;20203;-76
2023/12/26 04:04:50;;;;;;;3.60;2.10;;;;;;;;;;5111917;28;20221;-76
2023/12/26 04:07:18;;;;;;;3.73;2.37;;;;;;;;;;5111612;28;20617;-76
2023/12/26 04:09:45;;;;;;;3.27;2.20;;;;;;;;;;5111691;28;20195;-76
2023/12/26 04:12:12;;;;;;;2.63;2.00;;;;;;;;;;5112028;28;20196;-76
2023/12/26 04:14:39;;;;;;;8.90;2.57;;;;;;;;;;5112159;28;20562;-76
2023/12/26 04:17:06;;;;;;;20.20;11.27;;;;;;;;;;5111860;28;20211;-76
2023/12/26 04:19:33;;;;;;;21.50;14.60;;;;;;;;;;5112172;28;20275;-76
2023/12/26 04:22:00;;;;;;;7.30;3.80;;;;;;;;;;5111439;28;20191;-76
2023/12/26 04:24:28;;;;;;;5.27;3.00;;;;;;;;;;5112190;28;20566;-76
2023/12/26 04:26:55;;;;;;;2.57;2.10;;;;;;;;;;5110060;28;20226;-76
2023/12/26 04:29:21;;;;;;;106.67;46.40;;;;;;;;;;5114606;28;20574;-76
2023/12/26 04:31:48;;;;;;;19.40;11.10;;;;;;;;;;5115120;28;20223;-75
2023/12/26 04:34:15;;;;;;;8.53;5.57;;;;;;;;;;5115063;28;20199;-76
2023/12/26 04:36:42;;;;;;;4.57;3.33;;;;;;;;;;5115112;28;20207;-76
2023/12/26 04:39:09;;;;;;;3.80;2.13;;;;;;;;;;5115530;28;20199;-76
2023/12/26 04:41:37;;;;;;;4.03;2.33;;;;;;;;;;5114393;28;20282;-76
2023/12/26 04:44:04;;;;;;;3.00;2.70;;;;;;;;;;5115306;28;20203;-74
2023/12/26 04:46:31;;;;;;;5.13;3.77;;;;;;;;;;5115798;28;20598;-74
2023/12/26 04:48:58;;;;;;;2.53;2.17;;;;;;;;;;5114875;28;20295;-76
2023/12/26 04:51:28;;;;;;;3.70;2.60;;;;;;;;;;5115243;28;20206;-76
2023/12/26 04:53:55;;;;;;;3.57;2.93;;;;;;;;;;5114734;28;20195;-76
2023/12/26 04:56:22;;;;;;;3.93;2.23;;;;;;;;;;5114993;28;20199;-76
2023/12/26 04:58:51;;;;;;;2.60;2.20;;;;;;;;;;5114821;28;20195;-76
2023/12/26 05:01:19;;;;;;;4.60;3.07;;;;;;;;;;5114993;28;20199;-76
2023/12/26 05:03:46;;;;;;;5.60;4.23;;;;;;;;;;5115170;28;20195;-76
2023/12/26 05:06:13;;;;;;;17.20;11.33;;;;;;;;;;5114676;28;20221;-77
2023/12/26 05:08:41;;;;;;;15.33;12.23;;;;;;;;;;5114605;28;20183;-76
2023/12/26 05:11:08;;;;;;;5.23;4.13;;;;;;;;;;5111489;28;20684;-76
2023/12/26 05:13:35;;;;;;;4.30;3.67;;;;;;;;;;5113350;28;20253;-75
2023/12/26 05:16:05;;;;;;;4.77;3.37;;;;;;;;;;5105477;28;20254;-77
2023/12/26 05:18:32;;;;;;;4.20;3.80;;;;;;;;;;5104873;28;20210;-77
2023/12/26 05:21:00;;;;;;;7.93;4.07;;;;;;;;;;5105640;28;20700;-77
2023/12/26 05:23:27;;;;;;;6.47;4.00;;;;;;;;;;5113948;28;20204;-77
2023/12/26 05:25:54;;;;;;;5.20;4.70;;;;;;;;;;5113810;28;20222;-77
2023/12/26 05:28:21;;;;;;;6.77;5.27;;;;;;;;;;5098643;28;20336;-77
2023/12/26 05:30:48;;;;;;;7.03;4.90;;;;;;;;;;5108679;28;20215;-77
2023/12/26 05:33:18;;;;;;;5.53;4.70;;;;;;;;;;5093532;28;20674;-77
2023/12/26 05:35:45;;;;;;;4.60;3.30;;;;;;;;;;5092293;28;20204;-77
2023/12/26 05:38:12;;;;;;;4.90;3.17;;;;;;;;;;5111640;28;20677;-77
2023/12/26 05:40:40;;;;;;;3.97;3.00;;;;;;;;;;5100171;28;20201;-77
2023/12/26 05:43:07;;;;;;;4.47;3.73;;;;;;;;;;5092457;28;20189;-77
2023/12/26 05:45:33;;;;;;;12.53;11.07;;;;;;;;;;5088007;28;20218;-77
2023/12/26 05:48:00;;;;;;;31.27;23.33;;;;;;;;;;5112471;28;20195;-77
2023/12/26 05:50:29;;;;;;;19.30;16.33;;;;;;;;;;5104030;28;20196;-77
2023/12/26 05:52:55;;;;;;;7.10;6.37;;;;;;;;;;5105360;28;20658;-77
2023/12/26 05:55:22;;;;;;;3.33;2.67;;;;;;;;;;5105957;28;20207;-77
2023/12/26 05:57:49;;;;;;;3.07;2.77;;;;;;;;;;5087132;28;20226;-77
2023/12/26 06:00:17;;;;;;;4.63;3.27;;;;;;;;;;5112237;28;20199;-76
2023/12/26 06:02:44;;;;;;;2.93;2.57;;;;;;;;;;5110843;28;20200;-77
2023/12/26 06:05:11;;;;;;;3.03;2.70;;;;;;;;;;5108017;28;20662;-77
2023/12/26 06:07:39;;;;;;;2.57;2.37;;;;;;;;;;5097941;28;20566;-77
2023/12/26 06:10:07;;;;;;;8.37;4.87;;;;;;;;;;5101125;28;20196;-77
2023/12/26 06:12:34;;;;;;;5.03;4.20;;;;;;;;;;5111969;28;20196;-77
2023/12/26 06:15:03;;;;;;;5.10;4.60;;;;;;;;;;5112568;28;20696;-77
2023/12/26 06:17:30;;;;;;;7.53;4.20;;;;;;;;;;5111626;28;20221;-77
2023/12/26 06:19:57;;;;;;;7.30;3.83;;;;;;;;;;5111894;28;20244;-77
2023/12/26 06:22:24;;;;;;;5.80;4.53;;;;;;;;;;5103280;28;20201;-77
2023/12/26 06:24:52;;;;;;;7.20;6.13;;;;;;;;;;5107935;28;20573;-77
2023/12/26 06:27:18;;;;;;;15.67;7.90;;;;;;;;;;5111975;28;20230;-77
2023/12/26 06:29:45;;;;;;;12.20;10.00;;;;;;;;;;5112119;28;20586;-78
2023/12/26 06:32:12;;;;;;;12.97;10.57;;;;;;;;;;5112844;28;20230;-78
2023/12/26 06:34:39;;;;;;;21.53;16.37;;;;;;;;;;5112657;28;20210;-78
2023/12/26 06:37:06;;;;;;;19.20;15.63;;;;;;;;;;5111228;28;20570;-78
2023/12/26 06:39:32;;;;;;;6.93;6.17;;;;;;;;;;5112179;28;20199;-77
2023/12/26 06:42:01;;;;;;;6.80;4.07;;;;;;;;;;5100481;28;20690;-77
2023/12/26 06:44:27;;;;;;;7.37;4.60;;;;;;;;;;5092388;28;20655;-78
2023/12/26 06:46:54;;;;;;;8.07;5.73;;;;;;;;;;5106269;28;20226;-77
2023/12/26 06:49:21;;;;;;;11.13;7.20;;;;;;;;;;5111330;28;20619;-78
2023/12/26 06:51:48;;;;;;;9.63;6.50;;;;;;;;;;5111471;28;20277;-77
2023/12/26 06:54:15;;;;;;;8.07;6.23;;;;;;;;;;5111180;28;20202;-78
2023/12/26 06:56:41;;;;;;;9.00;6.20;;;;;;;;;;5112476;28;20208;-77
2023/12/26 06:59:10;;;;;;;4.33;3.97;;;;;;;;;;5112443;28;20204;-78
2023/12/26 07:01:36;;;;;;;6.07;4.90;;;;;;;;;;5112325;28;20195;-77
2023/12/26 07:04:03;;;;;;;24.93;16.90;;;;;;;;;;5113040;28;20195;-76
2023/12/26 07:06:31;;;;;;;48.70;29.10;;;;;;;;;;5113043;28;20218;-77
2023/12/26 07:08:58;;;;;;;33.17;21.27;;;;;;;;;;5112487;28;20191;-77
2023/12/26 07:11:25;;;;;;;16.27;11.00;;;;;;;;;;5112265;28;20196;-76
2023/12/26 07:13:52;;;;;;;12.33;8.13;;;;;;;;;;5112182;28;20210;-76
2023/12/26 07:16:20;;;;;;;10.90;6.73;;;;;;;;;;5110876;28;20203;-77
2023/12/26 07:18:47;;;;;;;12.43;9.03;;;;;;;;;;5112644;28;20206;-76
2023/12/26 07:21:16;;;;;;;27.40;21.83;;;;;;;;;;5102275;28;20192;-76
2023/12/26 07:23:44;;;;;;;30.10;22.63;;;;;;;;;;5091690;28;20292;-77
2023/12/26 07:26:11;;;;;;;16.47;13.27;;;;;;;;;;5091747;28;20220;-76
2023/12/26 07:28:38;;;;;;;14.63;11.67;;;;;;;;;;5091774;28;20677;-76
2023/12/26 07:31:06;;;;;;;9.33;8.00;;;;;;;;;;5091763;28;20232;-77
2023/12/26 07:33:34;;;;;;;10.23;6.53;;;;;;;;;;5091723;28;20639;-77
2023/12/26 07:36:03;;;;;;;15.20;8.97;;;;;;;;;;5100590;28;20673;-76
2023/12/26 07:38:30;;;;;;;17.70;12.40;;;;;;;;;;5112398;28;20203;-77
2023/12/26 07:40:57;;;;;;;14.80;10.03;;;;;;;;;;5112177;28;20195;-76
2023/12/26 07:43:23;;;;;;;10.40;8.07;;;;;;;;;;5110732;28;20200;-77
2023/12/26 07:45:50;;;;;;;15.37;9.27;;;;;;;;;;5111885;28;20199;-76
2023/12/26 07:48:17;;;;;;;19.30;10.37;;;;;;;;;;5101958;28;20286;-76
2023/12/26 07:50:46;;;;;;;15.50;10.20;;;;;;;;;;5097885;28;20207;-77
2023/12/26 07:53:12;;;;;;;19.63;13.07;;;;;;;;;;5091438;28;20198;-76
2023/12/26 07:55:39;;;;;;;14.93;9.60;;;;;;;;;;5092543;28;20200;-77
2023/12/26 07:58:07;;;;;;;9.97;7.57;;;;;;;;;;5091433;28;20200;-76
2023/12/26 08:00:34;;;;;;;17.00;8.70;;;;;;;;;;5091585;28;20200;-77
2023/12/26 08:03:01;;;;;;;12.60;8.60;;;;;;;;;;5092577;28;20579;-76
2023/12/26 08:05:28;;;;;;;14.27;9.60;;;;;;;;;;5108340;28;20680;-76
2023/12/26 08:07:56;;;;;;;10.03;8.50;;;;;;;;;;5115365;28;20226;-76
2023/12/26 08:10:25;;;;;;;12.37;8.87;;;;;;;;;;5115590;28;20683;-76
2023/12/26 08:12:52;;;;;;;11.73;9.23;;;;;;;;;;5114458;28;20204;-76
2023/12/26 08:15:19;;;;;;;15.70;10.80;;;;;;;;;;5115736;28;20188;-76
2023/12/26 08:17:45;;;;;;;8.50;4.97;;;;;;;;;;5115708;28;20540;-76
2023/12/26 08:20:13;;;;;;;12.87;8.50;;;;;;;;;;5115268;28;20196;-76
2023/12/26 08:22:40;;;;;;;13.50;10.60;;;;;;;;;;5113971;28;20192;-76
2023/12/26 08:25:11;;;;;;;14.97;9.47;;;;;;;;;;5115576;28;20206;-74
2023/12/26 08:27:40;;;;;;;12.30;8.60;;;;;;;;;;5112563;28;20215;-74
2023/12/26 08:30:08;;;;;;;14.83;10.60;;;;;;;;;;5075530;28;20193;-76
2023/12/26 08:32:35;;;;;;;10.57;8.87;;;;;;;;;;5075132;28;20578;-76
2023/12/26 08:35:02;;;;;;;9.50;8.43;;;;;;;;;;5074518;28;20724;-74
2023/12/26 08:37:29;;;;;;;9.80;6.73;;;;;;;;;;5075229;28;20201;-73
2023/12/26 08:39:56;;;;;;;20.93;14.30;;;;;;;;;;5102166;28;20202;-74
2023/12/26 08:42:24;;;;;;;12.27;8.77;;;;;;;;;;5115882;28;20207;-74
2023/12/26 08:44:51;;;;;;;12.00;7.33;;;;;;;;;;5115282;28;20199;-74
2023/12/26 08:47:18;;;;;;;9.87;7.20;;;;;;;;;;5112059;28;20234;-74
2023/12/26 08:49:44;;;;;;;7.13;5.37;;;;;;;;;;5101689;28;20671;-74
2023/12/26 08:52:13;;;;;;;5.27;4.43;;;;;;;;;;5101456;28;20196;-74
2023/12/26 08:54:39;;;;;;;5.83;4.90;;;;;;;;;;5103108;28;20665;-74
2023/12/26 08:57:08;;;;;;;7.17;4.00;;;;;;;;;;5113832;28;20203;-74
2023/12/26 08:59:37;;;;;;;6.23;3.73;;;;;;;;;;5114563;28;20199;-74
2023/12/26 09:02:05;;;;;;;4.43;3.40;;;;;;;;;;5101884;28;20203;-74
2023/12/26 09:04:31;;;;;;;8.93;4.10;;;;;;;;;;5094402;28;20203;-74
2023/12/26 09:06:59;;;;;;;6.23;3.27;;;;;;;;;;5092521;28;20216;-74
2023/12/26 09:09:27;;;;;;;7.60;4.03;;;;;;;;;;5094575;28;20197;-74
2023/12/26 09:11:56;;;;;;;8.03;5.83;;;;;;;;;;5093513;28;20202;-74
2023/12/26 09:14:22;;;;;;;8.23;4.83;;;;;;;;;;5093600;28;20667;-74
2023/12/26 09:16:51;;;;;;;4.53;3.50;;;;;;;;;;5094765;28;20678;-74
2023/12/26 09:19:19;;;;;;;4.50;3.43;;;;;;;;;;5094676;28;20539;-75
2023/12/26 09:21:46;;;;;;;5.07;3.17;;;;;;;;;;5094192;28;20252;-74
2023/12/26 09:24:25;;;;;;;8.17;4.83;;;;;;;;;;5094102;28;20200;-74
2023/12/26 09:26:51;;;;;;;6.67;3.73;;;;;;;;;;5094639;28;20228;-75
2023/12/26 09:29:18;;;;;;;8.53;7.63;;;;;;;;;;5091751;28;20202;-74
2023/12/26 09:31:45;;;;;;;10.40;5.10;;;;;;;;;;5093926;28;20238;-74
2023/12/26 09:34:14;;;;;;;6.80;4.80;;;;;;;;;;5086410;28;20224;-74
2023/12/26 09:36:41;;;;;;;8.20;4.30;;;;;;;;;;5113920;28;20211;-74
2023/12/26 09:39:10;;;;;;;16.50;13.90;;;;;;;;;;5111868;28;20201;-74
2023/12/26 09:41:37;;;;;;;11.43;6.67;;;;;;;;;;5113987;28;20206;-74
2023/12/26 09:44:04;;;;;;;10.40;8.43;;;;;;;;;;5113320;28;20199;-74
2023/12/26 09:46:31;;;;;;;11.50;8.47;;;;;;;;;;5112249;28;20200;-74
2023/12/26 09:48:58;;;;;;;10.57;7.53;;;;;;;;;;5113355;28;20208;-74
2023/12/26 09:51:26;;;;;;;14.27;7.73;;;;;;;;;;5112669;28;20668;-74
2023/12/26 09:53:57;;;;;;;13.87;9.23;;;;;;;;;;5102412;28;20200;-75
2023/12/26 09:56:25;;;;;;;14.17;9.00;;;;;;;;;;5092032;28;20266;-74
2023/12/26 09:58:52;;;;;;;12.67;7.80;;;;;;;;;;5103358;28;20205;-75
2023/12/26 10:01:19;;;;;;;10.97;8.63;;;;;;;;;;5105205;28;20202;-74
2023/12/26 10:03:46;;;;;;;9.70;7.50;;;;;;;;;;5111974;28;20709;-74
2023/12/26 10:06:15;;;;;;;7.20;6.00;;;;;;;;;;5113815;28;20201;-74
2023/12/26 10:08:43;;;;;;;7.80;5.00;;;;;;;;;;5111469;28;20700;-74
2023/12/26 10:11:13;;;;;;;9.33;6.10;;;;;;;;;;5111419;28;20203;-74
2023/12/26 10:13:43;;;;;;;8.70;6.40;;;;;;;;;;5096711;28;20571;-74
2023/12/26 10:16:13;;;;;;;8.97;5.43;;;;;;;;;;5103508;28;20195;-75
2023/12/26 10:18:40;;;;;;;6.43;3.80;;;;;;;;;;5094279;28;20207;-74
2023/12/26 10:21:07;;;;;;;4.87;3.70;;;;;;;;;;5091420;28;20569;-74
2023/12/26 10:23:34;;;;;;;5.77;4.13;;;;;;;;;;5100215;28;20195;-74
2023/12/26 10:26:03;;;;;;;5.27;4.20;;;;;;;;;;5111217;28;20202;-74
2023/12/26 10:28:30;;;;;;;5.57;4.27;;;;;;;;;;5112232;28;20222;-74
2023/12/26 10:30:55;;;;;;;20.40;13.13;;;;;;;;;;5111798;28;20219;-74
2023/12/26 10:33:26;;;;;;;6.00;4.50;;;;;;;;;;5112789;28;20585;-74
2023/12/26 10:36:04;;;;;;;11.43;7.00;;;;;;;;;;5113030;28;20621;-74
2023/12/26 10:38:30;;;;;;;19.70;15.40;;;;;;;;;;5111128;28;20195;-73
2023/12/26 10:41:00;;;;;;;24.70;16.90;;;;;;;;;;5113070;28;20205;-74
2023/12/26 10:43:29;;;;;;;11.63;9.67;;;;;;;;;;5111473;28;20205;-74
2023/12/26 10:45:56;;;;;;;7.20;6.50;;;;;;;;;;5112554;28;20191;-74
2023/12/26 10:48:25;;;;;;;8.97;6.83;;;;;;;;;;5111537;28;20633;-74
2023/12/26 10:50:53;;;;;;;20.30;15.03;;;;;;;;;;5112291;28;20192;-74
2023/12/26 10:53:21;;;;;;;13.70;7.77;;;;;;;;;;5111926;28;20195;-74
2023/12/26 10:55:50;;;;;;;8.10;5.77;;;;;;;;;;5092444;28;20203;-74
2023/12/26 10:58:23;;;;;;;8.47;6.70;;;;;;;;;;5097131;28;20192;-74
2023/12/26 11:08:10;;;;;;;9.60;6.73;;;;;;;;;;5112257;28;20218;-74
2023/12/26 11:17:21;;;;;;;10.47;8.10;;;;;;;;;;5112519;28;20247;-74
2023/12/26 11:23:29;;;;;;;7.10;5.03;;;;;;;;;;5103503;28;20345;-74
2023/12/26 11:29:38;;;;;;;11.07;5.47;;;;;;;;;;5111277;28;20252;-74
2023/12/26 11:32:22;;;;;;;4.60;3.50;;;;;;;;;;5111427;28;20227;-74
2023/12/26 11:38:48;;;;;;;7.83;5.60;;;;;;;;;;5113406;28;20206;-74
2023/12/26 11:44:38;;;;;;;10.13;5.33;;;;;;;;;;5115618;28;20198;-74
2023/12/26 11:49:49;;;;;;;8.50;4.97;;;;;;;;;;5075561;28;20199;-73
2023/12/26 11:52:33;;;;;;;4.83;4.40;;;;;;;;;;5075169;28;20581;-74
2023/12/26 12:09:04;;;;;;;4.67;2.90;;;;;;;;;;5115650;28;20218;-73
2023/12/26 12:12:07;;;;;;;5.07;3.50;;;;;;;;;;5114710;28;20265;-74
2023/12/26 12:14:56;;;;;;;7.70;4.77;;;;;;;;;;5099026;28;20267;-74
2023/12/26 12:20:26;;;;;;;11.77;9.17;;;;;;;;;;5114922;28;20244;-74
2023/12/26 12:32:42;;;;;;;6.43;2.73;;;;;;;;;;5115680;28;20222;-74
2023/12/26 12:35:33;;;;;;;4.33;2.70;;;;;;;;;;5113384;28;20202;-74
2023/12/26 12:37:59;;;;;;;3.37;3.03;;;;;;;;;;5113045;28;20199;-74
2023/12/26 12:57:18;;;;;;;9.20;4.10;;;;;;;;;;5113926;28;20206;-74
2023/12/26 13:09:51;;;;;;;11.30;5.67;;;;;;;;;;5113602;28;20689;-74
2023/12/26 13:16:17;;;;;;;7.90;4.20;;;;;;;;;;5087260;28;20204;-73
2023/12/26 13:19:02;;;;;;;10.10;4.57;;;;;;;;;;5087107;28;20562;-74
2023/12/26 13:21:47;;;;;;;5.33;4.03;;;;;;;;;;5111887;28;20195;-74
2023/12/26 13:24:50;;;;;;;7.50;3.67;;;;;;;;;;5092743;28;20658;-74
2023/12/26 13:40:44;;;;;;;26.43;18.10;;;;;;;;;;5114263;28;20194;-74
2023/12/26 13:49:57;;;;;;;15.53;10.93;;;;;;;;;;5113798;28;20623;-74
2023/12/26 13:53:00;;;;;;;10.73;7.10;;;;;;;;;;5073658;28;20201;-74
2023/12/26 13:56:04;;;;;;;12.67;6.40;;;;;;;;;;5072581;28;20200;-74
2023/12/26 13:58:32;;;;;;;9.30;6.90;;;;;;;;;;5072800;28;20197;-74
2023/12/26 14:00:59;;;;;;;6.47;5.80;;;;;;;;;;5084762;28;20569;-74
2023/12/26 14:04:03;;;;;;;14.20;5.07;;;;;;;;;;5112459;28;20191;-74
2023/12/26 14:06:51;;;;;;;7.90;6.13;;;;;;;;;;5103776;28;20200;-74
2023/12/26 14:09:37;;;;;;;8.47;5.43;;;;;;;;;;5113116;28;20242;-74
2023/12/26 14:12:41;;;;;;;7.10;6.30;;;;;;;;;;5112381;28;20237;-74
2023/12/26 14:15:28;;;;;;;20.00;12.43;;;;;;;;;;5077408;28;21217;-75
2023/12/26 14:18:12;;;;;;;12.50;8.63;;;;;;;;;;5094994;28;20203;-74
2023/12/26 14:20:39;;;;;;;13.80;11.20;;;;;;;;;;5111574;28;20199;-74
2023/12/26 14:23:06;;;;;;;15.23;9.50;;;;;;;;;;5106512;28;20195;-77
2023/12/26 14:25:33;;;;;;;19.33;15.50;;;;;;;;;;5098911;28;20606;-76
2023/12/26 14:27:59;;;;;;;22.67;19.27;;;;;;;;;;5109461;28;20222;-76
2023/12/26 14:30:28;;;;;;;24.00;17.13;;;;;;;;;;5104657;28;20254;-76
2023/12/26 14:32:55;;;;;;;15.70;11.20;;;;;;;;;;5106345;28;20596;-76
2023/12/26 14:35:21;;;;;;;46.43;33.30;;;;;;;;;;5100206;28;20203;-76
2023/12/26 14:37:48;;;;;;;50.47;34.57;;;;;;;;;;5111874;28;20203;-76
2023/12/26 14:40:15;;;;;;;19.27;12.57;;;;;;;;;;5112253;28;20203;-76
2023/12/26 14:42:42;;;;;;;12.13;7.87;;;;;;;;;;5107492;28;20204;-77
2023/12/26 14:45:08;;;;;;;11.63;6.80;;;;;;;;;;5111886;28;20190;-76
2023/12/26 14:47:37;;;;;;;6.47;5.33;;;;;;;;;;5109252;28;20303;-76
2023/12/26 14:50:03;;;;;;;11.23;5.67;;;;;;;;;;5102445;28;20592;-77
2023/12/26 14:52:30;;;;;;;10.20;7.33;;;;;;;;;;5108380;28;20233;-77
2023/12/26 14:54:57;;;;;;;9.27;6.30;;;;;;;;;;5106197;28;20203;-77
2023/12/26 14:57:24;;;;;;;13.73;8.30;;;;;;;;;;5109116;28;20202;-77
2023/12/26 14:59:50;;;;;;;13.10;8.53;;;;;;;;;;5096653;28;20191;-78
2023/12/26 15:02:18;;;;;;;15.27;9.37;;;;;;;;;;5111828;28;20198;-76
2023/12/26 15:04:46;;;;;;;13.80;9.93;;;;;;;;;;5110251;28;20688;-76
2023/12/26 15:07:13;;;;;;;24.70;17.23;;;;;;;;;;5111270;28;20204;-76
2023/12/26 15:09:40;;;;;;;15.53;8.70;;;;;;;;;;5105740;28;20218;-77
2023/12/26 15:12:07;;;;;;;15.20;8.23;;;;;;;;;;5101757;28;20204;-75
2023/12/26 15:14:34;;;;;;;14.47;11.23;;;;;;;;;;5110933;28;20220;-76
2023/12/26 15:17:03;;;;;;;27.87;19.80;;;;;;;;;;5111235;28;20199;-75
2023/12/26 15:19:30;;;;;;;23.80;15.93;;;;;;;;;;5112600;28;20283;-75
2023/12/26 15:21:58;;;;;;;28.37;22.50;;;;;;;;;;5112451;28;20201;-75
2023/12/26 15:24:25;;;;;;;79.30;46.43;;;;;;;;;;5112142;28;20216;-75
2023/12/26 15:26:52;;;;;;;28.93;17.77;;;;;;;;;;5110432;28;20193;-75
2023/12/26 15:29:19;;;;;;;24.53;15.53;;;;;;;;;;5102183;28;20723;-76
2023/12/26 15:31:49;;;;;;;47.93;26.10;;;;;;;;;;5097938;28;20226;-75
2023/12/26 15:34:16;;;;;;;37.20;19.73;;;;;;;;;;5110664;28;20257;-75
2023/12/26 15:36:43;;;;;;;28.40;17.60;;;;;;;;;;5111039;28;20216;-76
2023/12/26 15:39:13;;;;;;;34.50;21.40;;;;;;;;;;5108375;28;20204;-76
2023/12/26 15:41:41;;;;;;;29.30;20.57;;;;;;;;;;5101465;28;20198;-76
2023/12/26 15:44:08;;;;;;;31.53;22.83;;;;;;;;;;5097178;28;20192;-76
2023/12/26 15:46:35;;;;;;;51.47;38.70;;;;;;;;;;5109317;28;20206;-76
2023/12/26 15:49:03;;;;;;;53.40;40.57;;;;;;;;;;5101719;28;20227;-75
2023/12/26 15:51:30;;;;;;;49.70;34.37;;;;;;;;;;5110623;28;20666;-75
2023/12/26 15:53:57;;;;;;;47.93;31.77;;;;;;;;;;5096504;28;20193;-75
2023/12/26 15:56:27;;;;;;;38.40;26.87;;;;;;;;;;5110875;28;20195;-75
2023/12/26 15:58:54;;;;;;;41.13;27.27;;;;;;;;;;5109947;28;20202;-76
2023/12/26 16:01:21;;;;;;;40.83;25.47;;;;;;;;;;5110926;28;20199;-76
2023/12/26 16:03:50;;;;;;;27.43;17.10;;;;;;;;;;5109570;28;20219;-75
2023/12/26 16:06:18;;;;;;;19.03;12.43;;;;;;;;;;5095928;28;20625;-76
2023/12/26 16:08:45;;;;;;;16.83;10.23;;;;;;;;;;5102216;28;20228;-76
2023/12/26 16:11:11;;;;;;;19.93;12.07;;;;;;;;;;5111511;28;20200;-75
2023/12/26 16:13:40;;;;;;;19.23;13.40;;;;;;;;;;5109870;28;20195;-75
2023/12/26 16:16:08;;;;;;;27.30;16.97;;;;;;;;;;5110636;28;20195;-76
2023/12/26 16:18:35;;;;;;;42.47;26.00;;;;;;;;;;5109766;28;20208;-76
2023/12/26 16:21:05;;;;;;;33.60;19.43;;;;;;;;;;5111403;28;20195;-76
2023/12/26 16:23:32;;;;;;;26.27;13.73;;;;;;;;;;5110271;28;20192;-75
2023/12/26 16:25:59;;;;;;;15.43;10.13;;;;;;;;;;5114703;28;20203;-76
2023/12/26 16:28:26;;;;;;;15.57;8.93;;;;;;;;;;5114539;28;20219;-76
2023/12/26 16:30:54;;;;;;;6.60;4.90;;;;;;;;;;5114733;28;20648;-75
2023/12/26 16:33:21;;;;;;;10.03;5.93;;;;;;;;;;5114457;28;20665;-76